sensor_id;sensor_type;location;lat;lon;timestamp;temperature;humidity
41882;DHT22;27562;47.524;12.404;2023-01-09T00:01:56;0.70;99.90
41882;DHT22;27562;47.524;12.404;2023-01-09T00:04:22;0.70;99.90
41882;DHT22;27562;47.524;12.404;2023-01-09T00:06:47;0.70;99.90
41882;DHT22;27562;47.524;12.404;2023-01-09T00:09:21;0.70;99.90
41882;DHT22;27562;47.524;12.404;2023-01-09T00:11:47;0.70;99.90
41882;DHT22;27562;47.524;12.404;2023-01-09T00:14:14;0.60;99.90
41882;DHT22;27562;47.524;12.404;2023-01-09T00:16:39;0.70;99.90
41882;DHT22;27562;47.524;12.404;2023-01-09T00:19:05;0.60;99.90
41882;DHT22;27562;47.524;12.404;2023-01-09T00:21:30;0.60;99.90
41882;DHT22;27562;47.524;12.404;2023-01-09T00:23:56;0.70;99.90
41882;DHT22;27562;47.524;12.404;2023-01-09T00:26:22;0.70;99.90
41882;DHT22;27562;47.524;12.404;2023-01-09T00:28:48;0.70;99.90
41882;DHT22;27562;47.524;12.404;2023-01-09T00:31:14;0.70;99.90
41882;DHT22;27562;47.524;12.404;2023-01-09T00:36:05;0.70;99.90
41882;DHT22;27562;47.524;12.404;2023-01-09T00:38:31;0.70;99.90
41882;DHT22;27562;47.524;12.404;2023-01-09T00:40:56;0.70;99.90
41882;DHT22;27562;47.524;12.404;2023-01-09T00:43:23;0.70;99.90
41882;DHT22;27562;47.524;12.404;2023-01-09T00:45:50;0.70;99.90
41882;DHT22;27562;47.524;12.404;2023-01-09T00:48:17;0.70;99.90
41882;DHT22;27562;47.524;12.404;2023-01-09T00:50:49;0.80;99.90
41882;DHT22;27562;47.524;12.404;2023-01-09T00:53:16;0.80;99.90
41882;DHT22;27562;47.524;12.404;2023-01-09T00:55:42;0.80;99.90
41882;DHT22;27562;47.524;12.404;2023-01-09T00:58:08;0.80;99.90
41882;DHT22;27562;47.524;12.404;2023-01-09T01:00:34;0.80;99.90
41882;DHT22;27562;47.524;12.404;2023-01-09T01:02:59;0.80;99.90
41882;DHT22;27562;47.524;12.404;2023-01-09T01:05:25;0.80;99.90
41882;DHT22;27562;47.524;12.404;2023-01-09T01:08:18;0.70;99.90
41882;DHT22;27562;47.524;12.404;2023-01-09T01:10:45;0.70;99.90
41882;DHT22;27562;47.524;12.404;2023-01-09T01:13:11;0.70;99.90
41882;DHT22;27562;47.524;12.404;2023-01-09T01:15:37;0.80;99.90
41882;DHT22;27562;47.524;12.404;2023-01-09T01:18:03;0.70;99.90
41882;DHT22;27562;47.524;12.404;2023-01-09T01:20:29;0.80;99.90
41882;DHT22;27562;47.524;12.404;2023-01-09T01:22:54;0.80;99.90
41882;DHT22;27562;47.524;12.404;2023-01-09T01:25:20;0.80;99.90
41882;DHT22;27562;47.524;12.404;2023-01-09T01:27:45;0.70;99.90
41882;DHT22;27562;47.524;12.404;2023-01-09T01:30:12;0.80;99.90
41882;DHT22;27562;47.524;12.404;2023-01-09T01:32:38;0.80;99.90
41882;DHT22;27562;47.524;12.404;2023-01-09T01:35:04;0.80;99.90
41882;DHT22;27562;47.524;12.404;2023-01-09T01:37:30;0.80;99.90
41882;DHT22;27562;47.524;12.404;2023-01-09T01:39:56;0.80;99.90
41882;DHT22;27562;47.524;12.404;2023-01-09T01:42:21;0.80;99.90
41882;DHT22;27562;47.524;12.404;2023-01-09T01:47:19;0.80;99.90
41882;DHT22;27562;47.524;12.404;2023-01-09T01:49:45;0.80;99.90
41882;DHT22;27562;47.524;12.404;2023-01-09T01:52:11;0.80;99.90
41882;DHT22;27562;47.524;12.404;2023-01-09T01:54:37;0.80;99.90
41882;DHT22;27562;47.524;12.404;2023-01-09T01:57:03;0.80;99.90
41882;DHT22;27562;47.524;12.404;2023-01-09T01:59:33;0.80;99.90
41882;DHT22;27562;47.524;12.404;2023-01-09T02:02:01;0.80;99.90
41882;DHT22;27562;47.524;12.404;2023-01-09T02:04:27;0.80;99.90
41882;DHT22;27562;47.524;12.404;2023-01-09T02:06:54;0.80;99.90
41882;DHT22;27562;47.524;12.404;2023-01-09T02:09:20;0.90;99.90
41882;DHT22;27562;47.524;12.404;2023-01-09T02:11:51;0.80;99.90
41882;DHT22;27562;47.524;12.404;2023-01-09T02:14:16;0.80;99.90
41882;DHT22;27562;47.524;12.404;2023-01-09T02:19:19;0.70;99.90
41882;DHT22;27562;47.524;12.404;2023-01-09T02:27:29;0.70;99.90
41882;DHT22;27562;47.524;12.404;2023-01-09T02:30:15;0.70;99.90
41882;DHT22;27562;47.524;12.404;2023-01-09T02:32:44;0.70;99.90
41882;DHT22;27562;47.524;12.404;2023-01-09T02:40:46;0.70;99.90
41882;DHT22;27562;47.524;12.404;2023-01-09T02:43:13;0.70;99.90
41882;DHT22;27562;47.524;12.404;2023-01-09T02:45:39;0.80;99.90
41882;DHT22;27562;47.524;12.404;2023-01-09T02:48:05;0.70;99.90
41882;DHT22;27562;47.524;12.404;2023-01-09T02:50:39;0.80;99.90
41882;DHT22;27562;47.524;12.404;2023-01-09T02:53:14;0.70;99.90
41882;DHT22;27562;47.524;12.404;2023-01-09T03:03:33;0.70;99.90
41882;DHT22;27562;47.524;12.404;2023-01-09T03:08:33;0.70;99.90
41882;DHT22;27562;47.524;12.404;2023-01-09T03:11:01;0.70;99.90
41882;DHT22;27562;47.524;12.404;2023-01-09T03:13:31;0.70;99.90
41882;DHT22;27562;47.524;12.404;2023-01-09T03:15:58;0.70;99.90
41882;DHT22;27562;47.524;12.404;2023-01-09T03:18:25;0.80;99.90
41882;DHT22;27562;47.524;12.404;2023-01-09T03:20:52;0.80;99.90
41882;DHT22;27562;47.524;12.404;2023-01-09T03:23:19;0.80;99.90
41882;DHT22;27562;47.524;12.404;2023-01-09T03:25:44;0.80;99.90
41882;DHT22;27562;47.524;12.404;2023-01-09T03:28:28;0.80;99.90
41882;DHT22;27562;47.524;12.404;2023-01-09T03:30:53;0.70;99.90
41882;DHT22;27562;47.524;12.404;2023-01-09T03:33:19;0.70;99.90
41882;DHT22;27562;47.524;12.404;2023-01-09T03:35:45;0.70;99.90
41882;DHT22;27562;47.524;12.404;2023-01-09T03:38:10;0.70;99.90
41882;DHT22;27562;47.524;12.404;2023-01-09T03:40:36;0.80;99.90
41882;DHT22;27562;47.524;12.404;2023-01-09T03:43:01;0.80;99.90
41882;DHT22;27562;47.524;12.404;2023-01-09T03:45:27;0.70;99.90
41882;DHT22;27562;47.524;12.404;2023-01-09T03:47:52;0.80;99.90
41882;DHT22;27562;47.524;12.404;2023-01-09T03:50:18;0.80;99.90
41882;DHT22;27562;47.524;12.404;2023-01-09T03:52:44;0.80;99.90
41882;DHT22;27562;47.524;12.404;2023-01-09T03:55:09;0.80;99.90
41882;DHT22;27562;47.524;12.404;2023-01-09T03:57:35;0.80;99.90
41882;DHT22;27562;47.524;12.404;2023-01-09T04:00:01;0.80;99.90
41882;DHT22;27562;47.524;12.404;2023-01-09T04:02:26;0.90;99.90
41882;DHT22;27562;47.524;12.404;2023-01-09T04:04:52;0.80;99.90
41882;DHT22;27562;47.524;12.404;2023-01-09T04:07:17;0.90;99.90
41882;DHT22;27562;47.524;12.404;2023-01-09T04:09:43;0.90;99.90
41882;DHT22;27562;47.524;12.404;2023-01-09T04:12:09;0.90;99.90
41882;DHT22;27562;47.524;12.404;2023-01-09T04:14:34;0.90;99.90
41882;DHT22;27562;47.524;12.404;2023-01-09T04:17:00;0.90;99.90
41882;DHT22;27562;47.524;12.404;2023-01-09T04:19:25;0.90;99.90
41882;DHT22;27562;47.524;12.404;2023-01-09T04:21:51;0.90;99.90
41882;DHT22;27562;47.524;12.404;2023-01-09T04:24:16;0.90;99.90
41882;DHT22;27562;47.524;12.404;2023-01-09T04:26:42;1.00;99.90
41882;DHT22;27562;47.524;12.404;2023-01-09T04:29:07;1.00;99.90
41882;DHT22;27562;47.524;12.404;2023-01-09T04:31:33;1.00;99.90
41882;DHT22;27562;47.524;12.404;2023-01-09T04:33:58;1.00;99.90
41882;DHT22;27562;47.524;12.404;2023-01-09T04:36:24;1.00;99.90
41882;DHT22;27562;47.524;12.404;2023-01-09T04:38:50;1.00;99.90
41882;DHT22;27562;47.524;12.404;2023-01-09T04:41:15;0.90;99.90
41882;DHT22;27562;47.524;12.404;2023-01-09T04:44:01;0.90;99.90
41882;DHT22;27562;47.524;12.404;2023-01-09T04:46:26;0.90;99.90
41882;DHT22;27562;47.524;12.404;2023-01-09T04:48:52;0.90;99.90
41882;DHT22;27562;47.524;12.404;2023-01-09T04:51:17;0.90;99.90
41882;DHT22;27562;47.524;12.404;2023-01-09T04:53:43;0.90;99.90
41882;DHT22;27562;47.524;12.404;2023-01-09T04:56:09;1.00;99.90
41882;DHT22;27562;47.524;12.404;2023-01-09T04:58:34;1.00;99.90
41882;DHT22;27562;47.524;12.404;2023-01-09T05:01:00;1.00;99.90
41882;DHT22;27562;47.524;12.404;2023-01-09T05:03:25;1.00;99.90
41882;DHT22;27562;47.524;12.404;2023-01-09T05:05:51;1.00;99.90
41882;DHT22;27562;47.524;12.404;2023-01-09T05:08:16;1.00;99.90
41882;DHT22;27562;47.524;12.404;2023-01-09T05:10:42;1.10;99.90
41882;DHT22;27562;47.524;12.404;2023-01-09T05:13:07;1.10;99.90
41882;DHT22;27562;47.524;12.404;2023-01-09T05:15:33;1.10;99.90
41882;DHT22;27562;47.524;12.404;2023-01-09T05:17:58;1.10;99.90
41882;DHT22;27562;47.524;12.404;2023-01-09T05:20:24;1.10;99.90
41882;DHT22;27562;47.524;12.404;2023-01-09T05:22:49;1.10;99.90
41882;DHT22;27562;47.524;12.404;2023-01-09T05:25:15;1.10;99.90
41882;DHT22;27562;47.524;12.404;2023-01-09T05:27:40;1.20;99.90
41882;DHT22;27562;47.524;12.404;2023-01-09T05:30:10;1.20;99.90
41882;DHT22;27562;47.524;12.404;2023-01-09T05:32:36;1.20;99.90
41882;DHT22;27562;47.524;12.404;2023-01-09T05:35:02;1.20;99.90
41882;DHT22;27562;47.524;12.404;2023-01-09T05:37:27;1.20;99.90
41882;DHT22;27562;47.524;12.404;2023-01-09T05:39:53;1.20;99.90
41882;DHT22;27562;47.524;12.404;2023-01-09T05:42:18;1.20;99.90
41882;DHT22;27562;47.524;12.404;2023-01-09T05:44:44;1.30;99.90
41882;DHT22;27562;47.524;12.404;2023-01-09T05:47:09;1.20;99.90
41882;DHT22;27562;47.524;12.404;2023-01-09T05:49:35;1.20;99.90
41882;DHT22;27562;47.524;12.404;2023-01-09T05:52:01;1.20;99.90
41882;DHT22;27562;47.524;12.404;2023-01-09T05:54:26;1.30;99.90
41882;DHT22;27562;47.524;12.404;2023-01-09T05:56:52;1.30;99.90
41882;DHT22;27562;47.524;12.404;2023-01-09T05:59:18;1.30;99.90
41882;DHT22;27562;47.524;12.404;2023-01-09T06:01:43;1.30;99.90
41882;DHT22;27562;47.524;12.404;2023-01-09T06:04:09;1.30;99.90
41882;DHT22;27562;47.524;12.404;2023-01-09T06:06:35;1.30;99.90
41882;DHT22;27562;47.524;12.404;2023-01-09T06:09:00;1.40;99.90
41882;DHT22;27562;47.524;12.404;2023-01-09T06:11:27;1.40;99.90
41882;DHT22;27562;47.524;12.404;2023-01-09T06:13:53;1.40;99.90
41882;DHT22;27562;47.524;12.404;2023-01-09T06:16:19;1.50;99.90
41882;DHT22;27562;47.524;12.404;2023-01-09T06:18:44;1.60;99.90
41882;DHT22;27562;47.524;12.404;2023-01-09T06:21:10;1.60;99.90
41882;DHT22;27562;47.524;12.404;2023-01-09T06:23:36;1.60;99.90
41882;DHT22;27562;47.524;12.404;2023-01-09T06:26:01;1.60;99.90
41882;DHT22;27562;47.524;12.404;2023-01-09T06:28:27;1.60;99.90
41882;DHT22;27562;47.524;12.404;2023-01-09T06:30:53;1.60;99.90
41882;DHT22;27562;47.524;12.404;2023-01-09T06:33:18;1.50;99.90
41882;DHT22;27562;47.524;12.404;2023-01-09T06:35:44;1.50;99.90
41882;DHT22;27562;47.524;12.404;2023-01-09T06:38:09;1.50;99.90
41882;DHT22;27562;47.524;12.404;2023-01-09T06:40:36;1.50;99.90
41882;DHT22;27562;47.524;12.404;2023-01-09T06:43:02;1.50;99.90
41882;DHT22;27562;47.524;12.404;2023-01-09T06:45:27;1.50;99.90
41882;DHT22;27562;47.524;12.404;2023-01-09T06:47:53;1.50;99.90
41882;DHT22;27562;47.524;12.404;2023-01-09T06:50:18;1.50;99.90
41882;DHT22;27562;47.524;12.404;2023-01-09T06:52:44;1.50;99.90
41882;DHT22;27562;47.524;12.404;2023-01-09T06:55:10;1.80;99.90
41882;DHT22;27562;47.524;12.404;2023-01-09T06:57:35;1.90;99.90
41882;DHT22;27562;47.524;12.404;2023-01-09T07:00:01;1.90;99.90
41882;DHT22;27562;47.524;12.404;2023-01-09T07:02:27;1.80;99.90
41882;DHT22;27562;47.524;12.404;2023-01-09T07:04:52;1.80;99.90
41882;DHT22;27562;47.524;12.404;2023-01-09T07:07:18;1.90;99.90
41882;DHT22;27562;47.524;12.404;2023-01-09T07:09:44;1.90;99.90
41882;DHT22;27562;47.524;12.404;2023-01-09T07:12:10;2.00;99.90
41882;DHT22;27562;47.524;12.404;2023-01-09T07:14:35;2.10;99.90
41882;DHT22;27562;47.524;12.404;2023-01-09T07:17:01;2.10;99.90
41882;DHT22;27562;47.524;12.404;2023-01-09T07:19:27;2.10;99.90
41882;DHT22;27562;47.524;12.404;2023-01-09T07:21:53;2.00;99.90
41882;DHT22;27562;47.524;12.404;2023-01-09T07:24:18;2.00;99.90
41882;DHT22;27562;47.524;12.404;2023-01-09T07:26:44;2.10;99.90
41882;DHT22;27562;47.524;12.404;2023-01-09T07:29:09;2.10;99.90
41882;DHT22;27562;47.524;12.404;2023-01-09T07:31:35;2.10;99.90
41882;DHT22;27562;47.524;12.404;2023-01-09T07:34:00;2.00;99.90
41882;DHT22;27562;47.524;12.404;2023-01-09T07:36:26;2.10;99.90
41882;DHT22;27562;47.524;12.404;2023-01-09T07:38:51;2.00;99.90
41882;DHT22;27562;47.524;12.404;2023-01-09T07:41:17;2.10;99.90
41882;DHT22;27562;47.524;12.404;2023-01-09T07:43:42;2.10;99.90
41882;DHT22;27562;47.524;12.404;2023-01-09T07:46:08;2.20;99.90
41882;DHT22;27562;47.524;12.404;2023-01-09T07:48:33;2.20;99.90
41882;DHT22;27562;47.524;12.404;2023-01-09T07:50:59;2.20;99.90
41882;DHT22;27562;47.524;12.404;2023-01-09T07:53:24;2.20;99.90
41882;DHT22;27562;47.524;12.404;2023-01-09T07:55:50;2.30;99.90
41882;DHT22;27562;47.524;12.404;2023-01-09T07:58:16;2.40;99.90
41882;DHT22;27562;47.524;12.404;2023-01-09T08:00:41;2.30;99.90
41882;DHT22;27562;47.524;12.404;2023-01-09T08:03:07;2.30;99.90
41882;DHT22;27562;47.524;12.404;2023-01-09T08:05:32;2.30;99.90
41882;DHT22;27562;47.524;12.404;2023-01-09T08:07:58;2.30;99.90
41882;DHT22;27562;47.524;12.404;2023-01-09T08:10:23;2.30;99.90
41882;DHT22;27562;47.524;12.404;2023-01-09T08:12:49;2.40;99.90
41882;DHT22;27562;47.524;12.404;2023-01-09T08:15:15;2.40;99.90
41882;DHT22;27562;47.524;12.404;2023-01-09T08:17:41;2.40;99.90
41882;DHT22;27562;47.524;12.404;2023-01-09T08:20:08;2.50;99.90
41882;DHT22;27562;47.524;12.404;2023-01-09T08:22:35;2.50;99.90
41882;DHT22;27562;47.524;12.404;2023-01-09T08:25:00;2.50;99.90
41882;DHT22;27562;47.524;12.404;2023-01-09T08:27:26;2.60;99.90
41882;DHT22;27562;47.524;12.404;2023-01-09T08:29:52;2.60;99.90
41882;DHT22;27562;47.524;12.404;2023-01-09T08:32:17;2.60;99.90
41882;DHT22;27562;47.524;12.404;2023-01-09T08:34:43;2.70;99.90
41882;DHT22;27562;47.524;12.404;2023-01-09T08:37:08;2.80;99.90
41882;DHT22;27562;47.524;12.404;2023-01-09T08:39:34;2.90;99.90
41882;DHT22;27562;47.524;12.404;2023-01-09T08:42:00;2.80;99.90
41882;DHT22;27562;47.524;12.404;2023-01-09T08:44:44;2.80;99.90
41882;DHT22;27562;47.524;12.404;2023-01-09T08:47:28;2.80;99.90
41882;DHT22;27562;47.524;12.404;2023-01-09T08:49:57;2.80;99.90
41882;DHT22;27562;47.524;12.404;2023-01-09T08:52:23;2.80;99.90
41882;DHT22;27562;47.524;12.404;2023-01-09T08:54:48;2.70;99.90
41882;DHT22;27562;47.524;12.404;2023-01-09T08:57:14;2.70;99.90
41882;DHT22;27562;47.524;12.404;2023-01-09T08:59:40;2.70;99.90
41882;DHT22;27562;47.524;12.404;2023-01-09T09:02:05;2.80;99.90
41882;DHT22;27562;47.524;12.404;2023-01-09T09:04:31;2.70;99.90
41882;DHT22;27562;47.524;12.404;2023-01-09T09:06:56;2.70;99.90
41882;DHT22;27562;47.524;12.404;2023-01-09T09:09:22;2.70;99.90
41882;DHT22;27562;47.524;12.404;2023-01-09T09:11:49;2.70;99.90
41882;DHT22;27562;47.524;12.404;2023-01-09T09:14:14;2.80;99.90
41882;DHT22;27562;47.524;12.404;2023-01-09T09:16:59;2.80;99.90
41882;DHT22;27562;47.524;12.404;2023-01-09T09:19:24;2.90;99.90
41882;DHT22;27562;47.524;12.404;2023-01-09T09:21:50;3.00;99.90
41882;DHT22;27562;47.524;12.404;2023-01-09T09:24:15;3.10;99.90
41882;DHT22;27562;47.524;12.404;2023-01-09T09:26:41;3.20;99.90
41882;DHT22;27562;47.524;12.404;2023-01-09T09:29:06;3.20;99.90
41882;DHT22;27562;47.524;12.404;2023-01-09T09:31:32;3.20;99.90
41882;DHT22;27562;47.524;12.404;2023-01-09T09:33:58;3.30;99.90
41882;DHT22;27562;47.524;12.404;2023-01-09T09:36:23;3.30;99.90
41882;DHT22;27562;47.524;12.404;2023-01-09T09:38:49;3.40;99.90
41882;DHT22;27562;47.524;12.404;2023-01-09T09:47:03;3.50;99.90
41882;DHT22;27562;47.524;12.404;2023-01-09T09:49:34;3.60;99.90
41882;DHT22;27562;47.524;12.404;2023-01-09T09:52:03;3.60;99.90
41882;DHT22;27562;47.524;12.404;2023-01-09T09:54:32;3.50;99.90
41882;DHT22;27562;47.524;12.404;2023-01-09T09:56:58;3.50;99.90
41882;DHT22;27562;47.524;12.404;2023-01-09T09:59:26;3.50;99.90
41882;DHT22;27562;47.524;12.404;2023-01-09T10:01:56;3.50;99.90
41882;DHT22;27562;47.524;12.404;2023-01-09T10:04:24;3.50;99.90
41882;DHT22;27562;47.524;12.404;2023-01-09T10:06:51;3.50;99.90
41882;DHT22;27562;47.524;12.404;2023-01-09T10:14:37;3.50;99.90
41882;DHT22;27562;47.524;12.404;2023-01-09T10:17:06;3.50;99.90
41882;DHT22;27562;47.524;12.404;2023-01-09T10:22:09;3.50;99.90
41882;DHT22;27562;47.524;12.404;2023-01-09T10:32:43;3.40;99.90
41882;DHT22;27562;47.524;12.404;2023-01-09T10:37:48;3.40;99.90
41882;DHT22;27562;47.524;12.404;2023-01-09T10:40:19;3.40;99.90
41882;DHT22;27562;47.524;12.404;2023-01-09T10:42:48;3.40;99.90
41882;DHT22;27562;47.524;12.404;2023-01-09T10:45:16;3.50;99.90
41882;DHT22;27562;47.524;12.404;2023-01-09T10:47:43;3.50;99.90
41882;DHT22;27562;47.524;12.404;2023-01-09T10:50:19;3.60;99.90
41882;DHT22;27562;47.524;12.404;2023-01-09T10:52:45;3.60;99.90
41882;DHT22;27562;47.524;12.404;2023-01-09T10:55:18;3.70;99.90
41882;DHT22;27562;47.524;12.404;2023-01-09T10:57:55;3.70;99.90
41882;DHT22;27562;47.524;12.404;2023-01-09T11:00:22;3.80;99.90
41882;DHT22;27562;47.524;12.404;2023-01-09T11:02:49;3.80;99.90
41882;DHT22;27562;47.524;12.404;2023-01-09T11:05:22;3.80;99.90
41882;DHT22;27562;47.524;12.404;2023-01-09T11:07:50;3.80;99.90
41882;DHT22;27562;47.524;12.404;2023-01-09T11:10:17;3.90;99.90
41882;DHT22;27562;47.524;12.404;2023-01-09T11:12:43;3.90;99.90
41882;DHT22;27562;47.524;12.404;2023-01-09T11:17:50;3.90;99.90
41882;DHT22;27562;47.524;12.404;2023-01-09T11:22:48;3.90;99.90
41882;DHT22;27562;47.524;12.404;2023-01-09T11:25:15;3.90;99.90
41882;DHT22;27562;47.524;12.404;2023-01-09T11:27:41;3.90;99.90
41882;DHT22;27562;47.524;12.404;2023-01-09T11:32:40;3.90;99.90
41882;DHT22;27562;47.524;12.404;2023-01-09T11:35:06;4.00;99.90
41882;DHT22;27562;47.524;12.404;2023-01-09T11:37:39;4.00;99.90
41882;DHT22;27562;47.524;12.404;2023-01-09T11:40:05;4.00;99.90
41882;DHT22;27562;47.524;12.404;2023-01-09T11:42:39;4.10;99.90
41882;DHT22;27562;47.524;12.404;2023-01-09T11:45:20;4.10;99.90
41882;DHT22;27562;47.524;12.404;2023-01-09T11:47:48;4.10;99.90
41882;DHT22;27562;47.524;12.404;2023-01-09T11:50:18;4.10;99.90
41882;DHT22;27562;47.524;12.404;2023-01-09T11:52:44;4.10;99.90
41882;DHT22;27562;47.524;12.404;2023-01-09T11:55:11;4.20;99.90
41882;DHT22;27562;47.524;12.404;2023-01-09T11:57:37;4.20;99.90
41882;DHT22;27562;47.524;12.404;2023-01-09T12:00:05;4.20;99.90
41882;DHT22;27562;47.524;12.404;2023-01-09T12:05:07;4.30;99.90
41882;DHT22;27562;47.524;12.404;2023-01-09T12:07:43;4.20;99.90
41882;DHT22;27562;47.524;12.404;2023-01-09T12:15:11;4.30;99.90
41882;DHT22;27562;47.524;12.404;2023-01-09T12:40:55;4.40;99.90
41882;DHT22;27562;47.524;12.404;2023-01-09T12:46:04;4.40;99.90
41882;DHT22;27562;47.524;12.404;2023-01-09T12:56:28;4.40;99.90
41882;DHT22;27562;47.524;12.404;2023-01-09T12:59:40;4.50;99.90
41882;DHT22;27562;47.524;12.404;2023-01-09T13:01:44;4.40;99.90
41882;DHT22;27562;47.524;12.404;2023-01-09T13:06:39;4.40;99.90
41882;DHT22;27562;47.524;12.404;2023-01-09T13:11:52;4.40;99.90
41882;DHT22;27562;47.524;12.404;2023-01-09T13:14:21;4.40;99.90
41882;DHT22;27562;47.524;12.404;2023-01-09T13:16:50;4.40;99.90
41882;DHT22;27562;47.524;12.404;2023-01-09T13:19:21;4.40;99.90
41882;DHT22;27562;47.524;12.404;2023-01-09T13:21:48;4.40;99.90
41882;DHT22;27562;47.524;12.404;2023-01-09T13:24:16;4.40;99.90
41882;DHT22;27562;47.524;12.404;2023-01-09T13:27:02;4.40;99.90
41882;DHT22;27562;47.524;12.404;2023-01-09T13:29:35;4.40;99.90
41882;DHT22;27562;47.524;12.404;2023-01-09T13:34:28;4.40;99.90
41882;DHT22;27562;47.524;12.404;2023-01-09T13:36:56;4.50;99.90
41882;DHT22;27562;47.524;12.404;2023-01-09T13:39:27;4.50;99.90
41882;DHT22;27562;47.524;12.404;2023-01-09T13:42:00;4.50;99.90
41882;DHT22;27562;47.524;12.404;2023-01-09T13:44:46;4.50;99.90
41882;DHT22;27562;47.524;12.404;2023-01-09T13:47:16;4.50;99.90
41882;DHT22;27562;47.524;12.404;2023-01-09T13:59:43;4.40;99.90
41882;DHT22;27562;47.524;12.404;2023-01-09T14:04:57;4.40;99.90
41882;DHT22;27562;47.524;12.404;2023-01-09T14:07:23;4.30;99.90
41882;DHT22;27562;47.524;12.404;2023-01-09T14:10:00;4.30;99.90
41882;DHT22;27562;47.524;12.404;2023-01-09T14:12:26;4.30;99.90
41882;DHT22;27562;47.524;12.404;2023-01-09T14:14:53;4.30;99.90
41882;DHT22;27562;47.524;12.404;2023-01-09T14:17:29;4.30;99.90
41882;DHT22;27562;47.524;12.404;2023-01-09T14:19:59;4.30;99.90
41882;DHT22;27562;47.524;12.404;2023-01-09T14:22:26;4.30;99.90
41882;DHT22;27562;47.524;12.404;2023-01-09T14:24:52;4.30;99.90
41882;DHT22;27562;47.524;12.404;2023-01-09T14:32:45;4.30;99.90
41882;DHT22;27562;47.524;12.404;2023-01-09T14:35:22;4.30;99.90
41882;DHT22;27562;47.524;12.404;2023-01-09T14:38:00;4.30;99.90
41882;DHT22;27562;47.524;12.404;2023-01-09T14:40:26;4.20;99.90
41882;DHT22;27562;47.524;12.404;2023-01-09T14:42:53;4.20;99.90
41882;DHT22;27562;47.524;12.404;2023-01-09T14:45:21;4.20;99.90
41882;DHT22;27562;47.524;12.404;2023-01-09T14:47:54;4.20;99.90
41882;DHT22;27562;47.524;12.404;2023-01-09T14:50:31;4.20;99.90
41882;DHT22;27562;47.524;12.404;2023-01-09T14:58:39;4.10;99.90
41882;DHT22;27562;47.524;12.404;2023-01-09T15:03:37;4.00;99.90
41882;DHT22;27562;47.524;12.404;2023-01-09T15:06:03;4.00;99.90
41882;DHT22;27562;47.524;12.404;2023-01-09T15:08:29;4.00;99.90
41882;DHT22;27562;47.524;12.404;2023-01-09T15:10:56;4.00;99.90
41882;DHT22;27562;47.524;12.404;2023-01-09T15:13:31;4.00;99.90
41882;DHT22;27562;47.524;12.404;2023-01-09T15:15:58;3.90;99.90
41882;DHT22;27562;47.524;12.404;2023-01-09T15:18:26;3.90;99.90
41882;DHT22;27562;47.524;12.404;2023-01-09T15:20:53;3.90;99.90
41882;DHT22;27562;47.524;12.404;2023-01-09T15:23:21;3.90;99.90
41882;DHT22;27562;47.524;12.404;2023-01-09T15:25:47;3.80;99.90
41882;DHT22;27562;47.524;12.404;2023-01-09T15:28:26;3.80;99.90
41882;DHT22;27562;47.524;12.404;2023-01-09T15:30:57;3.80;99.90
41882;DHT22;27562;47.524;12.404;2023-01-09T15:33:24;3.80;99.90
41882;DHT22;27562;47.524;12.404;2023-01-09T15:35:50;3.80;99.90
41882;DHT22;27562;47.524;12.404;2023-01-09T15:38:17;3.70;99.90
41882;DHT22;27562;47.524;12.404;2023-01-09T15:40:51;3.70;99.90
41882;DHT22;27562;47.524;12.404;2023-01-09T15:43:17;3.70;99.90
41882;DHT22;27562;47.524;12.404;2023-01-09T15:45:43;3.70;99.90
41882;DHT22;27562;47.524;12.404;2023-01-09T15:51:13;3.70;99.90
41882;DHT22;27562;47.524;12.404;2023-01-09T15:53:42;3.60;99.90
41882;DHT22;27562;47.524;12.404;2023-01-09T15:58:37;3.60;99.90
41882;DHT22;27562;47.524;12.404;2023-01-09T16:01:06;3.60;99.90
41882;DHT22;27562;47.524;12.404;2023-01-09T16:03:40;3.50;99.90
41882;DHT22;27562;47.524;12.404;2023-01-09T16:06:07;3.50;99.90
41882;DHT22;27562;47.524;12.404;2023-01-09T16:08:35;3.50;99.90
41882;DHT22;27562;47.524;12.404;2023-01-09T16:11:05;3.50;99.90
41882;DHT22;27562;47.524;12.404;2023-01-09T16:13:32;3.50;99.90
41882;DHT22;27562;47.524;12.404;2023-01-09T16:15:59;3.50;99.90
41882;DHT22;27562;47.524;12.404;2023-01-09T16:18:30;3.50;99.90
41882;DHT22;27562;47.524;12.404;2023-01-09T16:23:32;3.60;99.90
41882;DHT22;27562;47.524;12.404;2023-01-09T16:26:02;3.50;99.90
41882;DHT22;27562;47.524;12.404;2023-01-09T16:28:27;3.50;99.90
41882;DHT22;27562;47.524;12.404;2023-01-09T16:31:04;3.50;99.90
41882;DHT22;27562;47.524;12.404;2023-01-09T16:33:34;3.50;99.90
41882;DHT22;27562;47.524;12.404;2023-01-09T16:36:00;3.40;99.90
41882;DHT22;27562;47.524;12.404;2023-01-09T16:38:27;3.40;99.90
41882;DHT22;27562;47.524;12.404;2023-01-09T16:41:06;3.40;99.90
41882;DHT22;27562;47.524;12.404;2023-01-09T16:43:51;3.40;99.90
41882;DHT22;27562;47.524;12.404;2023-01-09T16:46:19;3.50;99.90
41882;DHT22;27562;47.524;12.404;2023-01-09T16:48:45;3.40;99.90
41882;DHT22;27562;47.524;12.404;2023-01-09T16:51:20;3.40;99.90
41882;DHT22;27562;47.524;12.404;2023-01-09T16:53:46;3.40;99.90
41882;DHT22;27562;47.524;12.404;2023-01-09T16:56:16;3.40;99.90
41882;DHT22;27562;47.524;12.404;2023-01-09T16:58:42;3.40;99.90
41882;DHT22;27562;47.524;12.404;2023-01-09T17:01:08;3.40;99.90
41882;DHT22;27562;47.524;12.404;2023-01-09T17:03:35;3.50;99.90
41882;DHT22;27562;47.524;12.404;2023-01-09T17:06:01;3.40;99.90
41882;DHT22;27562;47.524;12.404;2023-01-09T17:08:28;3.40;99.90
41882;DHT22;27562;47.524;12.404;2023-01-09T17:10:55;3.40;99.90
41882;DHT22;27562;47.524;12.404;2023-01-09T17:13:21;3.40;99.90
41882;DHT22;27562;47.524;12.404;2023-01-09T17:15:47;3.40;99.90
41882;DHT22;27562;47.524;12.404;2023-01-09T17:18:19;3.40;99.90
41882;DHT22;27562;47.524;12.404;2023-01-09T17:20:46;3.30;99.90
41882;DHT22;27562;47.524;12.404;2023-01-09T17:23:12;3.30;99.90
41882;DHT22;27562;47.524;12.404;2023-01-09T17:25:38;3.40;99.90
41882;DHT22;27562;47.524;12.404;2023-01-09T17:28:22;3.40;99.90
41882;DHT22;27562;47.524;12.404;2023-01-09T17:31:06;3.30;99.90
41882;DHT22;27562;47.524;12.404;2023-01-09T17:33:33;3.30;99.90
41882;DHT22;27562;47.524;12.404;2023-01-09T17:36:02;3.30;99.90
41882;DHT22;27562;47.524;12.404;2023-01-09T17:38:28;3.20;99.90
41882;DHT22;27562;47.524;12.404;2023-01-09T17:40:54;3.20;99.90
41882;DHT22;27562;47.524;12.404;2023-01-09T17:43:20;3.20;99.90
41882;DHT22;27562;47.524;12.404;2023-01-09T17:45:46;3.10;99.90
41882;DHT22;27562;47.524;12.404;2023-01-09T17:48:12;3.10;99.90
41882;DHT22;27562;47.524;12.404;2023-01-09T17:50:38;3.20;99.90
41882;DHT22;27562;47.524;12.404;2023-01-09T17:53:03;3.10;99.90
41882;DHT22;27562;47.524;12.404;2023-01-09T17:55:29;3.10;99.90
41882;DHT22;27562;47.524;12.404;2023-01-09T17:57:55;3.00;99.90